createdAt,value
2022-09-05T00:00:13.990Z,15.80
2022-09-05T00:06:02.420Z,15.68
2022-09-05T00:11:42.116Z,15.73
2022-09-05T00:24:17.472Z,15.66
2022-09-05T00:31:51.533Z,15.70
2022-09-05T00:36:57.468Z,15.51
2022-09-05T00:42:04.205Z,15.47
2022-09-05T00:47:25.567Z,15.38
2022-09-05T00:53:05.006Z,15.13
2022-09-05T00:58:40.888Z,15.25
2022-09-05T01:04:37.552Z,14.99
2022-09-05T01:13:08.017Z,14.75
2022-09-05T01:24:18.345Z,14.84
2022-09-05T01:30:17.645Z,14.79
2022-09-05T01:38:11.941Z,14.92
2022-09-05T01:43:40.398Z,14.87
2022-09-05T01:48:59.215Z,14.64
2022-09-05T01:54:37.573Z,14.80
2022-09-05T01:59:55.298Z,14.72
2022-09-05T02:07:19.393Z,14.71
2022-09-05T02:13:03.016Z,14.64
2022-09-05T02:18:12.187Z,14.55
2022-09-05T02:23:41.821Z,14.43
2022-09-05T02:29:29.612Z,14.40
2022-09-05T02:35:00.902Z,14.36
2022-09-05T02:45:09.112Z,14.35
2022-09-05T02:56:36.238Z,14.47
2022-09-05T03:08:55.910Z,14.43
2022-09-05T03:18:21.098Z,14.47
2022-09-05T03:30:29.645Z,14.45
2022-09-05T03:35:48.764Z,14.41
2022-09-05T03:44:10.652Z,14.44
2022-09-05T03:57:21.024Z,14.52
2022-09-05T04:08:09.647Z,14.48
2022-09-05T04:14:06.494Z,14.50
2022-09-05T04:19:52.846Z,14.51
2022-09-05T04:25:26.979Z,14.54
2022-09-05T04:30:46.945Z,14.55
2022-09-05T04:36:20.938Z,14.53
2022-09-05T04:41:37.611Z,14.53
2022-09-05T04:47:08.332Z,14.59
2022-09-05T04:54:09.174Z,14.56
2022-09-05T05:03:05.625Z,14.58
2022-09-05T05:17:54.775Z,14.57
2022-09-05T05:23:28.364Z,14.67
2022-09-05T05:30:07.633Z,15.22
2022-09-05T05:35:12.005Z,15.37
2022-09-05T05:40:30.356Z,15.69
2022-09-05T05:45:33.232Z,15.88
2022-09-05T05:51:05.819Z,16.27
2022-09-05T05:57:52.849Z,16.80
2022-09-05T06:03:29.757Z,17.12
2022-09-05T06:14:51.508Z,17.43
2022-09-05T06:22:11.673Z,17.71
2022-09-05T06:29:34.622Z,18.08
2022-09-05T06:37:45.631Z,18.62
2022-09-05T06:47:05.880Z,18.55
2022-09-05T06:56:09.089Z,18.39
2022-09-05T07:01:13.153Z,18.18
2022-09-05T07:06:50.750Z,18.37
2022-09-05T07:14:49.627Z,18.54
2022-09-05T07:20:00.201Z,18.60
2022-09-05T07:25:06.393Z,18.91
2022-09-05T07:30:13.299Z,19.00
2022-09-05T07:35:42.446Z,19.06
2022-09-05T07:41:21.373Z,19.14
2022-09-05T07:46:26.251Z,19.16
2022-09-05T07:56:49.057Z,19.33
2022-09-05T08:02:12.723Z,19.56
2022-09-05T08:07:46.405Z,19.79
2022-09-05T08:14:44.145Z,19.91
2022-09-05T08:20:09.366Z,20.36
2022-09-05T08:25:58.917Z,20.50
2022-09-05T08:31:42.346Z,20.82
2022-09-05T08:36:56.131Z,20.94
2022-09-05T08:48:06.170Z,21.48
2022-09-05T08:55:09.602Z,21.62
2022-09-05T09:00:20.797Z,21.67
2022-09-05T09:07:47.996Z,21.85
2022-09-05T09:13:27.077Z,22.13
2022-09-05T09:20:12.506Z,22.46
2022-09-05T09:25:22.299Z,22.84
2022-09-05T09:30:30.229Z,22.93
2022-09-05T09:36:07.853Z,22.90
2022-09-05T09:42:44.785Z,22.86
2022-09-05T09:53:57.139Z,23.13
2022-09-05T09:59:26.123Z,23.35
2022-09-05T10:10:39.724Z,24.19
2022-09-05T10:16:52.891Z,24.14
2022-09-05T10:23:55.794Z,24.84
2022-09-05T10:29:36.574Z,25.23
2022-09-05T10:36:21.518Z,25.50
2022-09-05T10:41:42.500Z,25.26
2022-09-05T10:48:23.803Z,25.57
2022-09-05T10:53:53.146Z,25.73
2022-09-05T11:01:17.805Z,25.50
2022-09-05T11:08:30.890Z,25.53
2022-09-05T11:13:49.981Z,26.09
2022-09-05T11:18:57.687Z,26.46
2022-09-05T11:25:39.724Z,26.54
2022-09-05T11:30:45.716Z,26.90
2022-09-05T11:39:51.543Z,26.79
2022-09-05T11:50:44.593Z,26.22
2022-09-05T11:58:45.473Z,26.65
2022-09-05T12:04:21.289Z,26.54
2022-09-05T12:14:54.089Z,27.13
2022-09-05T12:20:29.225Z,27.22
2022-09-05T12:27:36.058Z,27.52
2022-09-05T12:36:04.504Z,26.92
2022-09-05T12:41:46.169Z,26.55
2022-09-05T12:47:23.172Z,27.21
2022-09-05T12:52:36.394Z,27.42
2022-09-05T13:02:57.033Z,27.67
2022-09-05T13:08:20.304Z,27.89
2022-09-05T13:14:59.360Z,27.80
2022-09-05T13:20:18.104Z,27.57
2022-09-05T13:25:26.365Z,27.85
2022-09-05T13:31:13.759Z,28.25
2022-09-05T13:43:08.542Z,28.25
2022-09-05T13:54:50.261Z,27.10
2022-09-05T14:02:28.842Z,26.92
2022-09-05T14:08:08.620Z,27.62
2022-09-05T14:13:27.623Z,27.16
2022-09-05T14:21:14.940Z,26.43
2022-09-05T14:26:28.546Z,26.85
2022-09-05T14:37:34.935Z,27.48
2022-09-05T14:45:15.580Z,27.25
2022-09-05T14:50:36.750Z,28.00
2022-09-05T14:55:39.642Z,28.03
2022-09-05T15:02:58.393Z,27.60
2022-09-05T15:08:26.993Z,27.49
2022-09-05T15:16:26.650Z,26.32
2022-09-05T15:21:38.509Z,26.92
2022-09-05T15:27:40.374Z,27.35
2022-09-05T15:32:43.903Z,27.67
2022-09-05T15:37:49.626Z,26.97
2022-09-05T15:43:01.855Z,26.35
2022-09-05T15:48:20.964Z,26.15
2022-09-05T15:53:28.409Z,26.42
2022-09-05T15:58:53.472Z,26.43
2022-09-05T16:09:16.622Z,26.51
2022-09-05T16:23:13.707Z,26.27
2022-09-05T16:28:42.560Z,26.47
2022-09-05T16:33:46.600Z,25.93
2022-09-05T16:39:14.496Z,25.86
2022-09-05T16:44:51.823Z,25.84
2022-09-05T16:50:34.570Z,25.81
2022-09-05T16:55:45.632Z,25.65
2022-09-05T17:01:19.497Z,25.54
2022-09-05T17:06:54.410Z,25.68
2022-09-05T17:12:00.608Z,25.40
2022-09-05T17:18:07.533Z,25.43
2022-09-05T17:26:29.237Z,25.21
2022-09-05T17:36:20.290Z,24.82
2022-09-05T17:41:53.915Z,24.46
2022-09-05T17:47:17.864Z,24.22
2022-09-05T17:52:22.145Z,23.97
2022-09-05T17:57:34.358Z,23.80
2022-09-05T18:02:55.918Z,23.60
2022-09-05T18:07:57.425Z,23.45
2022-09-05T18:13:32.278Z,23.36
2022-09-05T18:19:03.719Z,23.18
2022-09-05T18:25:28.163Z,23.02
2022-09-05T18:30:33.239Z,22.96
2022-09-05T18:35:38.326Z,22.55
2022-09-05T18:41:01.227Z,22.10
2022-09-05T18:46:13.703Z,21.87
2022-09-05T18:51:17.587Z,21.80
2022-09-05T18:57:12.063Z,21.74
2022-09-05T19:02:58.664Z,21.46
2022-09-05T19:08:06.388Z,21.27
2022-09-05T19:13:23.180Z,21.18
2022-09-05T19:18:33.135Z,21.09
2022-09-05T19:23:42.951Z,21.09
2022-09-05T19:32:59.808Z,20.84
2022-09-05T19:47:29.818Z,20.74
2022-09-05T19:53:06.755Z,20.65
2022-09-05T19:58:20.035Z,20.25
2022-09-05T20:03:22.060Z,20.01
2022-09-05T20:08:34.320Z,19.98
2022-09-05T20:13:35.325Z,19.79
2022-09-05T20:18:39.526Z,19.85
2022-09-05T20:23:48.472Z,19.93
2022-09-05T20:29:00.866Z,19.82
2022-09-05T20:34:50.177Z,19.78
2022-09-05T20:43:37.020Z,19.57
2022-09-05T20:54:17.179Z,19.55
2022-09-05T20:59:41.054Z,19.48
2022-09-05T21:04:54.859Z,19.41
2022-09-05T21:10:01.929Z,19.16
2022-09-05T21:15:07.360Z,19.00
2022-09-05T21:21:10.336Z,19.07
2022-09-05T21:26:30.096Z,19.26
2022-09-05T21:31:32.036Z,19.24
2022-09-05T21:36:34.713Z,18.88
2022-09-05T21:41:36.413Z,18.95
2022-09-05T21:47:48.044Z,18.98
2022-09-05T21:53:01.828Z,18.88
2022-09-05T22:00:10.946Z,18.96
2022-09-05T22:05:19.486Z,19.09
2022-09-05T22:10:21.334Z,19.06
2022-09-05T22:15:28.969Z,19.13
2022-09-05T22:20:30.600Z,19.02
2022-09-05T22:25:34.971Z,18.95
2022-09-05T22:30:35.873Z,18.92
2022-09-05T22:35:38.385Z,18.75
2022-09-05T22:40:40.306Z,18.75
2022-09-05T22:45:41.295Z,18.78
2022-09-05T22:50:42.354Z,18.62
2022-09-05T22:55:43.329Z,18.49
2022-09-05T23:00:44.273Z,18.71
2022-09-05T23:05:45.732Z,18.59
2022-09-05T23:10:46.711Z,18.47
2022-09-05T23:15:47.597Z,18.39
2022-09-05T23:20:48.533Z,18.47
2022-09-05T23:25:49.418Z,18.50
2022-09-05T23:30:50.286Z,18.51
2022-09-05T23:35:51.473Z,18.45
2022-09-05T23:40:59.110Z,18.46
2022-09-05T23:46:01.157Z,18.44
2022-09-05T23:51:10.353Z,18.43
2022-09-05T23:56:11.498Z,18.52
